EPWA/WAW METAR and TAF weather

Enter ICAO airport designator
Station Type Date Time Source
EPWA METAR 2023/01/30 10:30 UTC NOAA

EPWA 301030Z 24011KT 2500 -SN BR BKN008 BKN015 M00/M01 Q1001 TEMPO 1000 +SN


Station Type Date Time Source
EPWA Decoded METAR 2023/01/30 10:30 UTC NOAA

Warszawa-Okecie, Poland (EPWA) 52-10N 020-58E 107M
Jan 30, 2023 - 05:30 AM EST / 2023.01.30 1030 UTC
Wind: from the WSW (240 degrees) at 13 MPH (11 KT):0
Visibility: 1 mile(s):0
Sky conditions: mostly cloudy
Weather: light snow; mist
Temperature: 32 F (0 C)
Windchill: 23 F (-5 C):1
Dew Point: 30 F (-1 C)
Relative Humidity: 92%
Pressure (altimeter): 29.56 in. Hg (1001 hPa)
ob: EPWA 301030Z 24011KT 2500 -SN BR BKN008 BKN015 M00/M01 Q1001 TEMPO 1000 +SN
cycle: 10

Station Type Date Time Source
EPWA TAF 2023/01/30 09:33 UTC NOAA

TAF EPWA 300830Z 3009/3109 24014KT 4000 -SN BR BKN012
TEMPO 3009/3014 25015G31KT 2000 SN BR SCT004 BKN008 PROB40
TEMPO 3009/3013 0800 +SN BLSN
BECMG 3013/3015 7000 -RASN
TEMPO 3014/3022 4000 SHRA RA BR BKN006 BKN015CB
BECMG 3022/3101 BKN015

Example: see airport list